createdAt,value
2022-08-07T00:02:37.330Z,100.00
2022-08-07T00:05:05.754Z,100.00
2022-08-07T00:07:40.438Z,100.00
2022-08-07T00:10:25.859Z,100.00
2022-08-07T00:12:57.789Z,100.00
2022-08-07T00:15:38.633Z,100.00
2022-08-07T00:18:24.458Z,100.00
2022-08-07T00:20:57.590Z,100.00
2022-08-07T00:23:31.815Z,100.00
2022-08-07T00:26:12.835Z,100.00
2022-08-07T00:28:55.640Z,100.00
2022-08-07T00:31:38.463Z,100.00
2022-08-07T00:34:11.747Z,100.00
2022-08-07T00:36:43.172Z,100.00
2022-08-07T00:39:17.371Z,100.00
2022-08-07T00:42:01.728Z,100.00
2022-08-07T00:44:35.411Z,100.00
2022-08-07T00:47:16.134Z,100.00
2022-08-07T00:50:20.457Z,100.00
2022-08-07T00:52:48.439Z,100.00
2022-08-07T00:55:25.620Z,100.00
2022-08-07T00:58:07.525Z,100.00
2022-08-07T01:00:38.225Z,100.00
2022-08-07T01:03:55.510Z,100.00
2022-08-07T01:06:13.469Z,100.00
2022-08-07T01:08:53.507Z,100.00
2022-08-07T01:12:23.295Z,100.00
2022-08-07T01:14:15.596Z,100.00
2022-08-07T01:16:47.987Z,100.00
2022-08-07T01:19:20.916Z,100.00
2022-08-07T01:21:55.696Z,100.00
2022-08-07T01:24:32.362Z,100.00
2022-08-07T01:27:03.922Z,100.00
2022-08-07T01:29:34.488Z,100.00
2022-08-07T01:32:12.340Z,100.00
2022-08-07T01:34:47.376Z,100.00
2022-08-07T01:37:20.107Z,100.00
2022-08-07T01:39:51.955Z,100.00
2022-08-07T01:42:37.910Z,100.00
2022-08-07T01:45:17.770Z,100.00
2022-08-07T01:48:29.783Z,100.00
2022-08-07T01:50:43.612Z,100.00
2022-08-07T01:53:21.064Z,100.00
2022-08-07T01:55:59.385Z,100.00
2022-08-07T01:58:37.468Z,100.00
2022-08-07T02:02:02.104Z,100.00
2022-08-07T02:04:26.655Z,100.00
2022-08-07T02:07:00.474Z,100.00
2022-08-07T02:09:51.690Z,100.00
2022-08-07T02:12:29.404Z,100.00
2022-08-07T02:15:06.808Z,100.00
2022-08-07T02:17:49.201Z,100.00
2022-08-07T02:20:23.829Z,100.00
2022-08-07T02:23:01.671Z,100.00
2022-08-07T02:26:31.474Z,100.00
2022-08-07T02:28:31.394Z,100.00
2022-08-07T02:31:10.362Z,100.00
2022-08-07T02:34:03.856Z,100.00
2022-08-07T02:36:49.676Z,100.00
2022-08-07T02:39:43.290Z,100.00
2022-08-07T02:42:16.423Z,100.00
2022-08-07T02:44:51.043Z,100.00
2022-08-07T02:47:24.843Z,100.00
2022-08-07T02:50:02.138Z,100.00
2022-08-07T02:52:44.212Z,100.00
2022-08-07T02:55:28.321Z,100.00
2022-08-07T02:58:21.644Z,100.00
2022-08-07T03:00:55.384Z,100.00
2022-08-07T03:03:49.297Z,100.00
2022-08-07T03:06:32.048Z,100.00
2022-08-07T03:09:07.530Z,100.00
2022-08-07T03:11:51.818Z,100.00
2022-08-07T03:14:30.875Z,100.00
2022-08-07T03:17:00.860Z,100.00
2022-08-07T03:19:37.303Z,100.00
2022-08-07T03:22:18.550Z,100.00
2022-08-07T03:24:50.614Z,100.00
2022-08-07T03:27:30.399Z,100.00
2022-08-07T03:30:03.914Z,100.00
2022-08-07T03:32:48.945Z,100.00
2022-08-07T03:35:26.330Z,100.00
2022-08-07T03:38:01.821Z,100.00
2022-08-07T03:40:36.201Z,100.00
2022-08-07T03:43:14.869Z,100.00
2022-08-07T03:45:49.351Z,100.00
2022-08-07T03:48:24.550Z,100.00
2022-08-07T03:50:58.070Z,100.00
2022-08-07T03:54:02.047Z,100.00
2022-08-07T03:56:33.159Z,100.00
2022-08-07T03:59:13.381Z,100.00
2022-08-07T04:01:49.826Z,100.00
2022-08-07T04:04:24.584Z,100.00
2022-08-07T04:07:00.383Z,100.00
2022-08-07T04:09:45.226Z,100.00
2022-08-07T04:12:28.250Z,100.00
2022-08-07T04:15:01.218Z,100.00
2022-08-07T04:18:31.190Z,100.00
2022-08-07T04:20:25.375Z,100.00
2022-08-07T04:23:01.180Z,100.00
2022-08-07T04:25:39.181Z,100.00
2022-08-07T04:28:13.268Z,100.00
2022-08-07T04:30:56.974Z,100.00
2022-08-07T04:33:36.212Z,100.00
2022-08-07T04:36:08.860Z,100.00
2022-08-07T04:38:42.720Z,100.00
2022-08-07T04:41:18.059Z,100.00
2022-08-07T04:44:10.111Z,100.00
2022-08-07T04:47:03.860Z,100.00
2022-08-07T04:50:10.899Z,100.00
2022-08-07T04:52:53.737Z,100.00
2022-08-07T04:58:11.572Z,100.00
2022-08-07T04:59:15.943Z,100.00
2022-08-07T05:01:45.710Z,100.00
2022-08-07T05:04:34.132Z,100.00
2022-08-07T05:07:20.212Z,100.00
2022-08-07T05:09:59.531Z,100.00
2022-08-07T05:12:46.303Z,100.00
2022-08-07T05:15:28.087Z,100.00
2022-08-07T05:18:08.773Z,100.00
2022-08-07T05:20:53.800Z,100.00
2022-08-07T05:23:54.324Z,100.00
2022-08-07T05:26:28.724Z,100.00
2022-08-07T05:29:06.863Z,100.00
2022-08-07T05:31:51.159Z,100.00
2022-08-07T05:34:27.688Z,100.00
2022-08-07T05:36:58.563Z,100.00
2022-08-07T05:40:13.581Z,100.00
2022-08-07T05:42:34.729Z,100.00
2022-08-07T05:45:26.127Z,100.00
2022-08-07T05:48:07.068Z,100.00
2022-08-07T05:50:43.416Z,100.00
2022-08-07T05:54:13.219Z,100.00
2022-08-07T05:56:06.910Z,100.00
2022-08-07T05:58:52.850Z,100.00
2022-08-07T06:01:26.545Z,100.00
2022-08-07T06:04:07.703Z,100.00
2022-08-07T06:06:46.322Z,100.00
2022-08-07T06:09:20.259Z,100.00
2022-08-07T06:12:15.411Z,100.00
2022-08-07T06:14:49.645Z,100.00
2022-08-07T06:17:22.503Z,100.00
2022-08-07T06:20:04.076Z,100.00
2022-08-07T06:22:40.271Z,100.00
2022-08-07T06:25:34.853Z,100.00
2022-08-07T06:28:08.292Z,100.00
2022-08-07T06:30:45.638Z,100.00
2022-08-07T06:33:22.606Z,100.00
2022-08-07T06:36:13.003Z,100.00
2022-08-07T06:38:58.453Z,100.00
2022-08-07T06:42:02.477Z,100.00
2022-08-07T06:45:00.286Z,100.00
2022-08-07T06:47:48.146Z,100.00
2022-08-07T06:50:20.600Z,100.00
2022-08-07T06:52:55.928Z,100.00
2022-08-07T06:56:00.489Z,100.00
2022-08-07T06:58:28.737Z,100.00
2022-08-07T07:01:08.510Z,100.00
2022-08-07T07:03:48.187Z,100.00
2022-08-07T07:06:23.907Z,100.00
2022-08-07T07:08:58.130Z,100.00
2022-08-07T07:12:07.748Z,100.00
2022-08-07T07:14:21.801Z,100.00
2022-08-07T07:16:54.493Z,100.00
2022-08-07T07:19:57.281Z,100.00
2022-08-07T07:22:36.744Z,100.00
2022-08-07T07:26:30.631Z,100.00
2022-08-07T07:28:29.814Z,100.00
2022-08-07T07:31:11.228Z,100.00
2022-08-07T07:33:54.996Z,100.00
2022-08-07T07:36:32.362Z,100.00
2022-08-07T07:39:03.946Z,100.00
2022-08-07T07:42:02.145Z,100.00
2022-08-07T07:44:26.667Z,99.10
2022-08-07T07:47:09.288Z,91.83
2022-08-07T07:50:34.755Z,85.68
2022-08-07T07:52:42.124Z,84.96
2022-08-07T07:55:12.648Z,85.77
2022-08-07T07:57:53.169Z,87.30
2022-08-07T08:00:31.504Z,88.98
2022-08-07T08:03:16.730Z,87.40
2022-08-07T08:05:55.211Z,80.57
2022-08-07T08:08:34.581Z,80.34
2022-08-07T08:11:16.526Z,78.29
2022-08-07T08:13:53.352Z,77.46
2022-08-07T08:16:31.209Z,78.02
2022-08-07T08:19:18.048Z,73.30
2022-08-07T08:22:06.386Z,73.86
2022-08-07T08:25:04.729Z,73.95
2022-08-07T08:27:56.043Z,71.73
2022-08-07T08:30:29.683Z,73.04
2022-08-07T08:33:04.487Z,72.58
2022-08-07T08:35:42.909Z,71.55
2022-08-07T08:38:19.662Z,72.40
2022-08-07T08:40:57.413Z,67.35
2022-08-07T08:43:42.925Z,66.82
2022-08-07T08:46:49.126Z,66.22
2022-08-07T08:50:02.537Z,69.44
2022-08-07T08:52:54.138Z,65.22
2022-08-07T08:55:54.464Z,61.99
2022-08-07T08:58:38.634Z,64.16
2022-08-07T09:01:18.763Z,64.10
2022-08-07T09:04:01.362Z,64.30
2022-08-07T09:06:50.890Z,60.44
2022-08-07T09:09:44.675Z,61.90
2022-08-07T09:12:36.398Z,60.66
2022-08-07T09:16:23.130Z,60.62
2022-08-07T09:18:25.878Z,57.92
2022-08-07T09:21:34.406Z,56.99
2022-08-07T09:25:01.610Z,55.11
2022-08-07T09:28:03.277Z,58.01
2022-08-07T09:30:54.725Z,55.79
2022-08-07T09:33:56.803Z,55.53
2022-08-07T09:36:46.700Z,56.10
2022-08-07T09:39:53.669Z,58.06
2022-08-07T09:42:51.464Z,49.97
2022-08-07T09:47:50.260Z,51.01
2022-08-07T09:50:02.605Z,50.03
2022-08-07T09:52:16.043Z,50.49
2022-08-07T09:55:16.934Z,52.33
2022-08-07T09:58:26.212Z,51.94
2022-08-07T10:01:52.213Z,54.19
2022-08-07T10:04:17.514Z,54.06
2022-08-07T10:07:26.302Z,54.96
2022-08-07T10:10:03.903Z,54.42
2022-08-07T10:13:11.109Z,51.44
2022-08-07T10:16:08.775Z,50.90
2022-08-07T10:19:11.039Z,51.98
2022-08-07T10:22:24.925Z,51.69
2022-08-07T10:25:53.180Z,51.00
2022-08-07T10:28:49.350Z,48.90
2022-08-07T10:31:39.081Z,46.33
2022-08-07T10:34:32.255Z,47.11
2022-08-07T10:37:26.411Z,47.66
2022-08-07T10:40:24.299Z,48.84
2022-08-07T10:43:34.430Z,49.19
2022-08-07T10:46:12.280Z,47.91
2022-08-07T10:48:59.177Z,47.62
2022-08-07T10:52:13.151Z,48.36
2022-08-07T10:54:53.362Z,49.37
2022-08-07T10:57:51.540Z,46.96
2022-08-07T11:00:39.774Z,47.08
2022-08-07T11:03:37.321Z,47.23
2022-08-07T11:06:26.883Z,46.06
2022-08-07T11:09:11.475Z,46.48
2022-08-07T11:11:59.448Z,46.72
2022-08-07T11:14:56.884Z,46.25
2022-08-07T11:17:55.506Z,45.21
2022-08-07T11:20:49.281Z,45.32
2022-08-07T11:23:30.665Z,46.21
2022-08-07T11:26:27.840Z,44.77
2022-08-07T11:29:13.128Z,47.05
2022-08-07T11:32:25.815Z,47.79
2022-08-07T11:35:02.417Z,45.88
2022-08-07T11:37:58.046Z,50.94
2022-08-07T11:40:49.473Z,48.15
2022-08-07T11:43:41.635Z,47.01
2022-08-07T11:46:48.693Z,47.39
2022-08-07T11:50:18.632Z,46.33
2022-08-07T11:53:06.604Z,45.85
2022-08-07T11:56:25.508Z,45.29
2022-08-07T12:00:08.149Z,45.76
2022-08-07T12:02:20.926Z,46.48
2022-08-07T12:05:41.283Z,47.38
2022-08-07T12:08:34.470Z,47.91
2022-08-07T12:11:24.974Z,50.12
2022-08-07T12:14:18.956Z,49.55
2022-08-07T12:16:58.751Z,47.48
2022-08-07T12:20:06.340Z,47.51
2022-08-07T12:22:58.458Z,49.74
2022-08-07T12:26:21.571Z,47.58
2022-08-07T12:29:08.822Z,49.24
2022-08-07T12:32:03.781Z,47.62
2022-08-07T12:34:49.501Z,45.82
2022-08-07T12:37:27.798Z,44.80
2022-08-07T12:40:44.933Z,44.68
2022-08-07T12:43:09.432Z,46.03
2022-08-07T12:45:55.205Z,44.75
2022-08-07T12:48:41.471Z,46.10
2022-08-07T12:51:33.240Z,46.25
2022-08-07T12:54:36.859Z,45.54
2022-08-07T12:57:10.259Z,46.70
2022-08-07T12:59:54.701Z,46.13
2022-08-07T13:03:06.718Z,44.96
2022-08-07T13:06:03.652Z,45.96
2022-08-07T13:10:19.770Z,43.01
2022-08-07T13:12:31.743Z,44.40
2022-08-07T13:15:04.549Z,42.87
2022-08-07T13:17:49.660Z,43.45
2022-08-07T13:20:27.588Z,42.46
2022-08-07T13:23:10.060Z,42.43
2022-08-07T13:26:20.227Z,43.17
2022-08-07T13:29:00.799Z,43.75
2022-08-07T13:31:55.036Z,42.10
2022-08-07T13:34:48.571Z,45.03
2022-08-07T13:37:55.563Z,43.34
2022-08-07T13:40:42.267Z,42.50
2022-08-07T13:43:18.403Z,42.59
2022-08-07T13:46:21.530Z,41.29
2022-08-07T13:48:58.382Z,42.62
2022-08-07T13:52:04.520Z,40.14
2022-08-07T13:54:23.728Z,39.92
2022-08-07T13:56:59.769Z,40.36
2022-08-07T13:59:33.383Z,39.62
2022-08-07T14:02:12.893Z,39.76
2022-08-07T14:04:54.878Z,40.14
2022-08-07T14:07:30.546Z,41.43
2022-08-07T14:10:17.525Z,40.47
2022-08-07T14:13:00.784Z,40.16
2022-08-07T14:15:43.218Z,40.96
2022-08-07T14:18:29.803Z,42.10
2022-08-07T14:22:00.442Z,41.55
2022-08-07T14:24:13.788Z,40.82
2022-08-07T14:26:57.481Z,40.48
2022-08-07T14:30:10.064Z,41.07
2022-08-07T14:32:42.910Z,40.95
2022-08-07T14:35:43.312Z,42.35
2022-08-07T14:38:26.588Z,42.23
2022-08-07T14:41:12.109Z,40.66
2022-08-07T14:43:58.342Z,40.38
2022-08-07T14:46:52.020Z,41.72
2022-08-07T14:52:27.989Z,42.10
2022-08-07T14:55:01.181Z,42.63
2022-08-07T14:57:58.340Z,42.16
2022-08-07T15:00:31.167Z,41.78
2022-08-07T15:03:17.438Z,39.09
2022-08-07T15:05:55.342Z,40.07
2022-08-07T15:08:50.083Z,39.60
2022-08-07T15:11:53.270Z,39.57
2022-08-07T15:14:30.353Z,40.82
2022-08-07T15:17:04.262Z,40.83
2022-08-07T15:20:33.747Z,39.96
2022-08-07T15:22:33.495Z,40.50
2022-08-07T15:25:19.599Z,39.61
2022-08-07T15:28:32.907Z,41.07
2022-08-07T15:31:04.721Z,42.06
2022-08-07T15:33:37.032Z,38.94
2022-08-07T15:36:09.500Z,39.74
2022-08-07T15:38:58.489Z,40.16
2022-08-07T15:42:45.154Z,39.67
2022-08-07T15:44:26.312Z,40.44
2022-08-07T15:47:08.849Z,40.11
2022-08-07T15:52:40.436Z,38.97
2022-08-07T15:55:14.339Z,40.29
2022-08-07T15:57:49.892Z,40.08
2022-08-07T16:00:33.436Z,41.51
2022-08-07T16:03:21.861Z,40.29
2022-08-07T16:06:08.012Z,40.70
2022-08-07T16:08:45.580Z,40.78
2022-08-07T16:11:57.479Z,41.04
2022-08-07T16:15:01.998Z,41.21
2022-08-07T16:18:02.850Z,42.12
2022-08-07T16:21:56.981Z,42.53
2022-08-07T16:24:34.420Z,42.30
2022-08-07T16:27:25.783Z,43.05
2022-08-07T16:30:29.472Z,44.17
2022-08-07T16:34:01.508Z,44.43
2022-08-07T16:36:47.914Z,44.85
2022-08-07T16:40:28.291Z,44.42
2022-08-07T16:43:21.617Z,43.68
2022-08-07T16:46:33.543Z,44.00
2022-08-07T16:50:20.673Z,45.12
2022-08-07T16:52:55.754Z,44.13
2022-08-07T16:55:47.079Z,45.55
2022-08-07T16:58:19.935Z,45.27
2022-08-07T17:01:03.518Z,44.96
2022-08-07T17:03:59.842Z,45.36
2022-08-07T17:07:14.440Z,45.77
2022-08-07T17:10:30.197Z,46.23
2022-08-07T17:13:22.702Z,46.07
2022-08-07T17:16:11.113Z,46.29
2022-08-07T17:18:47.336Z,45.66
2022-08-07T17:21:23.002Z,46.27
2022-08-07T17:24:04.683Z,46.87
2022-08-07T17:26:49.796Z,48.23
2022-08-07T17:30:15.025Z,49.31
2022-08-07T17:32:30.291Z,49.29
2022-08-07T17:35:51.817Z,50.14
2022-08-07T17:38:19.965Z,50.62
2022-08-07T17:42:03.955Z,50.70
2022-08-07T17:44:42.805Z,50.32
2022-08-07T17:47:41.773Z,51.81
2022-08-07T17:50:30.340Z,50.23
2022-08-07T17:53:06.122Z,50.85
2022-08-07T17:55:55.631Z,50.49
2022-08-07T17:58:59.109Z,49.89
2022-08-07T18:01:37.240Z,50.07
2022-08-07T18:04:16.961Z,50.62
2022-08-07T18:07:20.457Z,50.57
2022-08-07T18:10:06.063Z,49.63
2022-08-07T18:12:55.724Z,49.88
2022-08-07T18:15:32.900Z,50.03
2022-08-07T18:21:01.486Z,50.08
2022-08-07T18:21:28.192Z,51.41
2022-08-07T18:24:33.923Z,51.54
2022-08-07T18:27:17.266Z,51.51
2022-08-07T18:30:05.978Z,51.90
2022-08-07T18:32:55.074Z,52.66
2022-08-07T18:36:03.122Z,52.83
2022-08-07T18:39:01.458Z,53.70
2022-08-07T18:42:05.603Z,52.88
2022-08-07T18:48:00.759Z,54.04
2022-08-07T18:50:52.483Z,54.21
2022-08-07T18:53:55.699Z,54.15
2022-08-07T18:57:23.206Z,54.64
2022-08-07T18:59:58.868Z,54.67
2022-08-07T19:02:42.798Z,54.20
2022-08-07T19:06:02.634Z,55.31
2022-08-07T19:08:27.715Z,55.44
2022-08-07T19:11:34.965Z,55.47
2022-08-07T19:14:08.082Z,56.34
2022-08-07T19:17:08.154Z,56.81
2022-08-07T19:20:05.996Z,56.89
2022-08-07T19:23:59.162Z,57.86
2022-08-07T19:26:23.395Z,57.86
2022-08-07T19:31:05.260Z,58.29
2022-08-07T19:32:17.488Z,58.92
2022-08-07T19:35:04.699Z,59.43
2022-08-07T19:37:56.424Z,59.80
2022-08-07T19:40:34.704Z,60.45
2022-08-07T19:43:12.737Z,60.48
2022-08-07T19:46:04.816Z,61.79
2022-08-07T19:48:44.143Z,62.49
2022-08-07T19:51:24.214Z,62.36
2022-08-07T19:54:34.121Z,63.21
2022-08-07T19:58:01.224Z,64.41
2022-08-07T20:00:28.468Z,64.95
2022-08-07T20:03:34.565Z,64.84
2022-08-07T20:06:28.520Z,65.48
2022-08-07T20:09:46.401Z,66.70
2022-08-07T20:12:31.294Z,67.40
2022-08-07T20:14:58.873Z,68.61
2022-08-07T20:17:29.697Z,68.89
2022-08-07T20:20:00.906Z,69.91
2022-08-07T20:22:34.189Z,70.89
2022-08-07T20:25:19.928Z,72.00
2022-08-07T20:27:58.508Z,72.04
2022-08-07T20:30:39.516Z,72.95
2022-08-07T20:33:36.751Z,74.10
2022-08-07T20:36:10.772Z,74.59
2022-08-07T20:38:56.810Z,75.83
2022-08-07T20:41:34.143Z,76.14
2022-08-07T20:44:12.606Z,76.98
2022-08-07T20:46:45.151Z,77.99
2022-08-07T20:49:58.445Z,78.11
2022-08-07T20:52:21.206Z,79.39
2022-08-07T20:54:59.737Z,79.98
2022-08-07T20:57:32.411Z,80.99
2022-08-07T21:00:09.475Z,81.74
2022-08-07T21:03:01.855Z,82.46
2022-08-07T21:05:51.380Z,83.25
2022-08-07T21:08:37.035Z,84.06
2022-08-07T21:11:10.574Z,84.50
2022-08-07T21:13:43.838Z,84.72
2022-08-07T21:16:30.269Z,85.64
2022-08-07T21:19:02.534Z,86.47
2022-08-07T21:21:57.200Z,87.42
2022-08-07T21:24:34.823Z,87.90
2022-08-07T21:27:22.584Z,88.74
2022-08-07T21:30:08.946Z,89.42
2022-08-07T21:32:50.306Z,90.29
2022-08-07T21:35:34.704Z,91.61
2022-08-07T21:39:00.910Z,91.90
2022-08-07T21:41:52.217Z,93.33
2022-08-07T21:44:56.735Z,94.20
2022-08-07T21:47:37.395Z,95.61
2022-08-07T21:50:14.519Z,95.75
2022-08-07T21:52:55.158Z,96.15
2022-08-07T21:55:49.441Z,96.80
2022-08-07T21:58:45.860Z,97.02
2022-08-07T22:02:07.173Z,97.74
2022-08-07T22:04:20.552Z,98.36
2022-08-07T22:07:03.744Z,99.30
2022-08-07T22:09:54.447Z,99.45
2022-08-07T22:12:35.171Z,100.00
2022-08-07T22:16:39.514Z,100.00
2022-08-07T22:18:05.858Z,100.00
2022-08-07T22:20:57.130Z,100.00
2022-08-07T22:23:30.003Z,100.00
2022-08-07T22:26:08.646Z,100.00
2022-08-07T22:28:40.973Z,100.00
2022-08-07T22:31:59.141Z,100.00
2022-08-07T22:34:40.659Z,100.00
2022-08-07T22:38:03.211Z,100.00
2022-08-07T22:40:56.146Z,100.00
2022-08-07T22:43:36.028Z,100.00
2022-08-07T22:46:46.750Z,100.00
2022-08-07T22:49:23.470Z,100.00
2022-08-07T22:52:19.580Z,100.00
2022-08-07T22:55:30.217Z,100.00
2022-08-07T22:58:28.071Z,100.00
2022-08-07T23:01:25.457Z,100.00
2022-08-07T23:04:30.660Z,100.00
2022-08-07T23:07:33.585Z,100.00
2022-08-07T23:10:37.539Z,100.00
2022-08-07T23:14:09.641Z,100.00
2022-08-07T23:16:55.974Z,100.00
2022-08-07T23:19:51.356Z,100.00
2022-08-07T23:22:35.200Z,100.00
2022-08-07T23:25:23.139Z,100.00
2022-08-07T23:28:33.199Z,100.00
2022-08-07T23:32:49.106Z,100.00
2022-08-07T23:34:42.120Z,100.00
2022-08-07T23:37:33.996Z,100.00
2022-08-07T23:40:41.275Z,100.00
2022-08-07T23:44:07.711Z,100.00
2022-08-07T23:46:53.980Z,100.00
2022-08-07T23:49:59.829Z,100.00
2022-08-07T23:53:00.637Z,100.00
2022-08-07T23:55:52.547Z,100.00
2022-08-07T23:58:28.409Z,100.00
